Time;durP1;ratioP1;P1;durP2;ratioP2;P2;SDS_P1;SDS_P2;PMS_P1;PMS_P2;Temp;Humidity;BMP_temperature;BMP_pressure;BME280_temperature;BME280_humidity;BME280_pressure;Samples;Min_cycle;Max_cycle;Signal;HPM_P1;HPM_P2
2022/03/18 00:00:51;;;;;;;18.35;7.35;;;;;;;7.00;64.90;104027.22;4961216;28;20462;-55
2022/03/18 00:03:16;;;;;;;20.10;9.60;;;;;;;7.03;65.10;104023.94;4956803;28;20687;-51
2022/03/18 00:05:42;;;;;;;28.83;13.23;;;;;;;7.08;64.88;104025.19;4962489;28;20090;-55
2022/03/18 00:08:07;;;;;;;25.00;12.10;;;;;;;7.06;64.94;104029.38;4954355;28;20362;-52
2022/03/18 00:10:33;;;;;;;24.77;11.35;;;;;;;7.03;65.09;104027.44;4957173;28;20061;-54
2022/03/18 00:12:59;;;;;;;25.33;11.73;;;;;;;7.01;64.88;104025.53;4966572;28;20120;-50
2022/03/18 00:15:25;;;;;;;24.85;10.27;;;;;;;7.06;64.84;104032.88;4947491;28;20589;-52
2022/03/18 00:17:51;;;;;;;20.92;9.65;;;;;;;7.10;64.95;104031.41;4941789;28;20512;-55
2022/03/18 00:20:17;;;;;;;25.42;9.90;;;;;;;7.07;64.90;104036.38;4953922;28;20046;-52
2022/03/18 00:22:44;;;;;;;24.52;9.88;;;;;;;7.04;64.78;104037.03;4950908;28;20108;-54
2022/03/18 00:25:11;;;;;;;22.17;9.68;;;;;;;6.99;64.81;104043.56;4962432;28;20038;-51
2022/03/18 00:27:38;;;;;;;24.58;10.00;;;;;;;6.96;64.49;104040.69;4958082;28;20394;-49
2022/03/18 00:30:05;;;;;;;23.90;9.68;;;;;;;6.88;64.84;104039.22;4944527;28;20402;-51
2022/03/18 00:32:31;;;;;;;22.20;9.25;;;;;;;6.86;64.88;104046.88;4953459;28;20058;-52
2022/03/18 00:34:56;;;;;;;21.15;9.27;;;;;;;6.85;64.68;104041.56;4942116;28;20062;-54
2022/03/18 00:37:21;;;;;;;22.95;9.13;;;;;;;6.80;64.58;104045.47;4954852;28;20140;-53
2022/03/18 00:39:47;;;;;;;21.23;9.25;;;;;;;6.79;64.78;104048.84;4955743;28;21104;-54
2022/03/18 00:42:12;;;;;;;21.60;10.02;;;;;;;6.77;64.93;104053.91;4961928;28;20042;-50
2022/03/18 00:44:39;;;;;;;21.42;9.55;;;;;;;6.71;65.12;104056.00;4946914;28;20367;-51
2022/03/18 00:52:33;;;;;;;18.75;8.60;;;;;;;6.69;64.96;104052.41;4951205;28;20137;-55
2022/03/18 00:54:59;;;;;;;23.60;8.70;;;;;;;6.67;65.01;104045.28;4953193;28;20434;-54
2022/03/18 00:57:24;;;;;;;21.98;8.73;;;;;;;6.63;65.23;104051.94;4957361;28;21226;-53
2022/03/18 00:59:51;;;;;;;25.65;10.55;;;;;;;6.57;65.56;104045.34;4964044;28;20356;-54
2022/03/18 01:02:17;;;;;;;25.83;10.05;;;;;;;6.60;65.61;104051.66;4935794;28;20474;-53
2022/03/18 01:04:42;;;;;;;23.50;9.50;;;;;;;6.58;65.21;104048.06;4954740;28;20042;-54
2022/03/18 01:07:07;;;;;;;21.92;9.05;;;;;;;6.53;65.39;104058.84;4950116;28;20144;-52
2022/03/18 01:09:33;;;;;;;21.30;9.57;;;;;;;6.46;65.82;104063.50;4958216;28;20125;-51
2022/03/18 01:11:58;;;;;;;20.88;9.15;;;;;;;6.51;65.73;104063.91;4952687;28;20034;-51
2022/03/18 01:14:23;;;;;;;18.95;8.57;;;;;;;6.48;65.42;104069.72;4950859;28;20085;-55
2022/03/18 01:16:49;;;;;;;16.98;8.07;;;;;;;6.46;65.36;104060.03;4956509;28;20042;-51
2022/03/18 01:19:14;;;;;;;17.50;8.35;;;;;;;6.44;65.34;104057.31;4966413;28;20056;-51
2022/03/18 01:21:40;;;;;;;16.55;8.32;;;;;;;6.39;65.73;104047.38;4959598;28;20960;-53
2022/03/18 01:24:06;;;;;;;19.92;7.95;;;;;;;6.35;65.56;104051.38;4963259;28;20039;-54
2022/03/18 01:26:31;;;;;;;25.25;9.75;;;;;;;6.32;66.71;104058.91;4951054;28;20116;-53
2022/03/18 01:28:58;;;;;;;21.88;8.85;;;;;;;6.35;66.06;104051.38;4957345;28;20194;-53
2022/03/18 01:31:24;;;;;;;18.83;8.38;;;;;;;6.37;65.77;104051.50;4958209;28;20698;-54
2022/03/18 01:33:49;;;;;;;18.77;7.90;;;;;;;6.32;65.70;104058.91;4954030;28;20042;-55
2022/03/18 01:36:16;;;;;;;19.95;8.52;;;;;;;6.30;65.37;104055.28;4959139;28;20050;-55
2022/03/18 01:38:43;;;;;;;17.08;7.80;;;;;;;6.26;65.76;104063.59;4953757;28;20048;-54
2022/03/18 01:41:09;;;;;;;16.08;7.63;;;;;;;6.23;65.78;104060.75;4959962;28;20089;-51
2022/03/18 01:43:41;;;;;;;18.67;8.00;;;;;;;6.28;65.75;104058.56;4942910;28;20133;-54
2022/03/18 01:46:07;;;;;;;15.85;7.70;;;;;;;6.34;65.56;104067.69;4929309;28;20533;-55
2022/03/18 01:48:33;;;;;;;16.67;7.53;;;;;;;6.31;65.55;104064.88;4950170;28;20529;-53
2022/03/18 01:50:58;;;;;;;18.27;7.45;;;;;;;6.26;65.60;104066.19;4958483;28;20038;-52
2022/03/18 01:53:24;;;;;;;15.75;7.50;;;;;;;6.22;65.49;104069.28;4954477;28;20363;-53
2022/03/18 01:55:49;;;;;;;20.25;7.63;;;;;;;6.17;65.63;104064.53;4962398;28;20054;-54
2022/03/18 01:58:15;;;;;;;17.45;8.30;;;;;;;6.11;65.85;104054.56;4941066;28;20037;-54
2022/03/18 02:00:41;;;;;;;18.52;7.70;;;;;;;6.11;65.94;104058.06;4952601;28;21281;-52
2022/03/18 02:03:06;;;;;;;17.73;7.43;;;;;;;6.13;66.14;104062.47;4963192;28;20054;-50
2022/03/18 02:05:32;;;;;;;15.57;7.13;;;;;;;6.12;66.12;104056.38;4961353;28;20046;-53
2022/03/18 02:07:58;;;;;;;16.52;6.47;;;;;;;6.13;66.13;104055.59;4957279;28;20581;-51
2022/03/18 02:10:23;;;;;;;16.30;6.80;;;;;;;6.10;66.11;104053.66;4931651;28;20653;-53
2022/03/18 02:12:49;;;;;;;13.57;6.75;;;;;;;6.10;65.94;104055.34;4963054;28;20042;-53
2022/03/18 02:15:14;;;;;;;15.20;6.40;;;;;;;6.10;66.09;104070.88;4957693;28;20864;-54
2022/03/18 02:17:39;;;;;;;13.50;6.35;;;;;;;6.09;66.05;104070.00;4957821;28;20046;-55
2022/03/18 02:20:05;;;;;;;22.10;8.38;;;;;;;6.10;66.62;104078.66;4963145;28;20521;-56
2022/03/18 02:22:39;;;;;;;19.17;7.55;;;;;;;6.19;66.31;104086.28;4958406;28;20062;-53
2022/03/18 02:25:09;;;;;;;19.48;7.70;;;;;;;6.23;66.44;104084.06;4943435;28;20336;-54
2022/03/18 02:27:34;;;;;;;16.80;7.13;;;;;;;6.28;66.04;104087.94;4966414;28;20069;-51
2022/03/18 02:30:01;;;;;;;17.15;7.25;;;;;;;6.29;65.81;104094.03;4958321;28;20501;-51
2022/03/18 02:32:27;;;;;;;17.67;7.40;;;;;;;6.27;65.73;104095.59;4954626;28;20046;-54
2022/03/18 02:34:52;;;;;;;17.27;7.97;;;;;;;6.22;66.10;104096.91;4957571;28;20395;-54
2022/03/18 02:37:18;;;;;;;19.50;8.38;;;;;;;6.26;65.92;104098.97;4959990;28;20046;-55
2022/03/18 02:39:46;;;;;;;17.50;7.90;;;;;;;6.25;65.83;104097.16;4963629;28;20046;-52
2022/03/18 02:42:12;;;;;;;15.85;7.80;;;;;;;6.23;65.74;104098.69;4964174;28;20062;-54
2022/03/18 02:44:37;;;;;;;19.42;8.23;;;;;;;6.17;65.52;104104.28;4955622;28;20476;-52
2022/03/18 02:47:02;;;;;;;19.30;8.20;;;;;;;6.12;65.64;104108.19;4958091;28;20090;-53
2022/03/18 02:49:28;;;;;;;16.73;7.75;;;;;;;6.06;65.67;104110.28;4960613;28;20161;-55
2022/03/18 02:51:53;;;;;;;15.15;7.50;;;;;;;6.01;65.52;104107.31;4954497;28;20046;-49
2022/03/18 02:54:19;;;;;;;21.60;8.07;;;;;;;5.97;65.55;104106.94;4950243;28;20117;-55
2022/03/18 02:56:44;;;;;;;16.42;7.90;;;;;;;5.93;65.61;104112.59;4957297;28;20476;-51
2022/03/18 02:59:10;;;;;;;20.30;8.00;;;;;;;5.93;65.63;104110.03;4964025;28;20061;-51
2022/03/18 03:01:35;;;;;;;17.55;7.72;;;;;;;5.90;65.45;104118.47;4963546;28;20386;-51
2022/03/18 03:04:00;;;;;;;14.93;7.30;;;;;;;5.89;66.04;104123.50;4954754;28;20049;-55
2022/03/18 03:09:12;;;;;;;17.38;7.40;;;;;;;5.83;66.39;104123.84;4951044;28;20137;-54
2022/03/18 03:11:37;;;;;;;18.50;7.50;;;;;;;5.80;66.75;104123.59;4960082;28;20045;-52
2022/03/18 03:14:03;;;;;;;16.98;7.43;;;;;;;5.80;66.68;104133.03;4963570;28;20058;-53
2022/03/18 03:16:32;;;;;;;15.75;7.47;;;;;;;5.78;66.48;104126.84;4946689;28;20045;-54
2022/03/18 03:18:57;;;;;;;17.02;7.22;;;;;;;5.81;66.53;104129.66;4962541;28;20046;-51
2022/03/18 03:21:23;;;;;;;18.10;7.68;;;;;;;5.77;66.57;104131.09;4960689;28;20042;-52
2022/03/18 03:23:48;;;;;;;16.88;7.75;;;;;;;5.72;66.58;104129.81;4966387;28;20058;-49
2022/03/18 03:26:14;;;;;;;14.90;7.10;;;;;;;5.70;66.45;104121.00;4939571;28;20061;-52
2022/03/18 03:28:40;;;;;;;17.73;7.07;;;;;;;5.68;66.72;104114.78;4949628;28;21074;-51
2022/03/18 03:31:05;;;;;;;12.77;6.93;;;;;;;5.67;66.71;104119.06;4958916;28;20514;-51
2022/03/18 03:33:31;;;;;;;14.82;7.10;;;;;;;5.67;66.55;104124.22;4955369;28;20264;-51
2022/03/18 03:35:56;;;;;;;14.10;6.90;;;;;;;5.67;67.26;104124.22;4948764;28;20042;-54
2022/03/18 03:38:23;;;;;;;15.57;6.57;;;;;;;5.67;66.93;104124.22;4950247;28;20056;-51
2022/03/18 03:40:49;;;;;;;15.73;6.50;;;;;;;5.66;66.95;104119.84;4943219;28;20064;-51
2022/03/18 03:43:14;;;;;;;14.98;6.70;;;;;;;5.65;67.42;104124.88;4961331;28;20043;-52
2022/03/18 03:45:40;;;;;;;15.43;6.72;;;;;;;5.61;67.54;104131.47;4959078;28;20123;-52
2022/03/18 03:48:06;;;;;;;12.32;5.95;;;;;;;5.64;67.35;104136.03;4964181;28;20054;-54
2022/03/18 03:50:33;;;;;;;12.93;6.10;;;;;;;5.69;67.18;104132.13;4949992;28;20348;-55
2022/03/18 03:52:58;;;;;;;13.52;6.50;;;;;;;5.70;67.38;104134.84;4960131;28;20495;-54
2022/03/18 03:55:24;;;;;;;13.48;6.63;;;;;;;5.72;67.11;104138.50;4961823;28;20122;-54
2022/03/18 03:57:49;;;;;;;13.10;6.13;;;;;;;5.75;67.15;104136.91;4954490;28;20517;-55
2022/03/18 04:00:16;;;;;;;14.35;6.65;;;;;;;5.71;67.21;104144.44;4962591;28;20038;-54
2022/03/18 04:02:45;;;;;;;14.15;6.10;;;;;;;5.67;67.36;104134.56;4956785;28;20073;-51
2022/03/18 04:05:12;;;;;;;11.90;6.15;;;;;;;5.67;67.45;104141.47;4953493;28;20042;-51
2022/03/18 04:07:39;;;;;;;14.98;6.63;;;;;;;5.69;67.26;104142.47;4964095;28;20156;-55
2022/03/18 04:10:06;;;;;;;11.35;5.80;;;;;;;5.69;67.12;104142.47;4957111;28;20046;-54
2022/03/18 04:12:33;;;;;;;11.65;5.63;;;;;;;5.66;67.13;104143.16;4952046;28;20069;-54
2022/03/18 04:14:59;;;;;;;11.13;5.65;;;;;;;5.63;67.22;104149.72;4956305;28;20081;-55
2022/03/18 04:17:26;;;;;;;10.52;5.47;;;;;;;5.61;67.19;104154.75;4958777;28;20050;-55
2022/03/18 04:19:52;;;;;;;11.18;5.82;;;;;;;5.58;67.32;104156.19;4939189;28;20054;-54
2022/03/18 04:22:17;;;;;;;13.07;6.22;;;;;;;5.56;67.41;104160.31;4954966;28;20042;-58
2022/03/18 04:24:43;;;;;;;13.35;6.07;;;;;;;5.53;67.09;104163.56;4957104;28;20066;-53
2022/03/18 04:27:08;;;;;;;11.73;5.57;;;;;;;5.52;67.38;104178.97;4939756;28;20112;-55
2022/03/18 04:29:33;;;;;;;12.85;6.25;;;;;;;5.54;67.42;104180.00;4958351;28;20042;-53
2022/03/18 04:31:59;;;;;;;15.63;6.43;;;;;;;5.47;67.15;104173.41;4960706;28;20050;-52
2022/03/18 04:34:25;;;;;;;12.20;6.00;;;;;;;5.44;67.51;104169.63;4939683;28;20053;-52
2022/03/18 04:36:50;;;;;;;12.93;6.05;;;;;;;5.43;67.16;104173.88;4963472;28;20104;-51
2022/03/18 04:39:16;;;;;;;11.00;5.30;;;;;;;5.44;66.86;104167.03;4961113;28;20083;-56
2022/03/18 04:41:41;;;;;;;11.52;5.60;;;;;;;5.42;67.49;104161.75;4957156;28;20043;-52
2022/03/18 04:44:07;;;;;;;12.63;5.95;;;;;;;5.43;67.34;104162.66;4955887;28;20423;-55
2022/03/18 04:46:32;;;;;;;11.23;5.43;;;;;;;5.39;67.37;104156.28;4953221;28;20498;-54
2022/03/18 04:49:01;;;;;;;9.07;5.47;;;;;;;5.38;67.82;104158.75;4969398;28;20078;-54
2022/03/18 04:51:30;;;;;;;12.05;5.70;;;;;;;5.41;67.62;104164.19;4954001;28;20050;-52
2022/03/18 04:53:55;;;;;;;13.73;6.13;;;;;;;5.40;68.36;104175.31;4944315;28;20038;-55
2022/03/18 04:59:08;;;;;;;12.25;5.85;;;;;;;5.42;67.35;104179.88;4959927;28;20594;-56
2022/03/18 05:01:34;;;;;;;11.93;5.47;;;;;;;5.40;67.86;104177.91;4945159;28;20489;-55
2022/03/18 05:03:59;;;;;;;11.88;5.63;;;;;;;5.36;67.56;104179.34;4966606;28;20038;-54
2022/03/18 05:06:26;;;;;;;11.18;5.30;;;;;;;5.35;67.72;104181.78;4949020;28;20224;-52
2022/03/18 05:08:52;;;;;;;10.77;5.75;;;;;;;5.35;67.98;104194.72;4965843;28;20050;-54
2022/03/18 05:11:17;;;;;;;12.18;5.65;;;;;;;5.37;67.82;104198.34;4954031;28;20047;-52
2022/03/18 05:13:44;;;;;;;12.20;5.85;;;;;;;5.33;67.99;104202.34;4950940;28;20053;-54
2022/03/18 05:16:10;;;;;;;10.07;5.30;;;;;;;5.31;67.84;104202.19;4953263;28;20073;-52
2022/03/18 05:18:35;;;;;;;10.23;5.20;;;;;;;5.33;67.53;104204.91;4948583;28;20897;-56
2022/03/18 05:21:00;;;;;;;10.93;5.60;;;;;;;5.31;67.65;104206.44;4945723;28;20145;-53
2022/03/18 05:23:26;;;;;;;11.68;5.80;;;;;;;5.28;68.05;104203.63;4953501;28;20057;-54
2022/03/18 05:25:51;;;;;;;11.43;5.18;;;;;;;5.27;67.92;104212.16;4954145;28;21218;-55
2022/03/18 05:28:17;;;;;;;10.93;5.32;;;;;;;5.26;68.38;104211.22;4961303;28;20037;-52
2022/03/18 05:30:49;;;;;;;17.02;6.68;;;;;;;5.21;68.79;104225.44;4956796;28;20254;-51
2022/03/18 05:33:14;;;;;;;16.85;6.25;;;;;;;5.23;68.75;104229.09;4963119;28;20216;-50
2022/03/18 05:35:39;;;;;;;13.13;6.05;;;;;;;5.28;68.17;104226.91;4958109;28;20497;-53
2022/03/18 05:38:05;;;;;;;10.07;5.40;;;;;;;5.26;68.46;104233.59;4939864;28;20890;-52
2022/03/18 05:40:30;;;;;;;11.52;5.20;;;;;;;5.25;68.43;104245.63;4936568;28;20042;-54
2022/03/18 05:42:58;;;;;;;12.45;5.40;;;;;;;5.26;68.50;104249.13;4957386;28;20537;-54
2022/03/18 05:45:23;;;;;;;13.98;5.85;;;;;;;5.27;68.28;104250.94;4959028;28;20050;-52
2022/03/18 05:47:49;;;;;;;12.07;5.60;;;;;;;5.26;68.11;104262.06;4955939;28;20047;-55
2022/03/18 05:50:16;;;;;;;11.93;5.65;;;;;;;5.25;68.38;104257.66;4962113;28;20047;-53
2022/03/18 05:52:45;;;;;;;13.43;5.63;;;;;;;5.27;68.61;104263.88;4958102;28;20078;-55
2022/03/18 05:55:10;;;;;;;11.90;5.70;;;;;;;5.28;68.52;104261.44;4964771;28;20465;-56
2022/03/18 05:57:36;;;;;;;10.80;5.55;;;;;;;5.31;69.03;104266.88;4959371;28;20046;-54
2022/03/18 06:00:02;;;;;;;13.02;5.93;;;;;;;5.34;68.68;104273.09;4966772;28;20512;-53
2022/03/18 06:02:28;;;;;;;13.35;6.28;;;;;;;5.35;68.73;104275.81;4953139;28;20585;-55
2022/03/18 06:04:53;;;;;;;12.55;6.22;;;;;;;5.37;68.60;104273.38;4959141;28;20046;-54
2022/03/18 06:07:19;;;;;;;14.13;6.40;;;;;;;5.40;68.98;104271.06;4961534;28;20104;-51
2022/03/18 06:12:29;;;;;;;13.95;6.57;;;;;;;5.46;68.93;104269.00;4942325;28;20084;-53
2022/03/18 06:14:54;;;;;;;15.15;6.63;;;;;;;5.48;69.39;104277.81;4961398;28;20104;-53
2022/03/18 06:17:19;;;;;;;14.23;7.00;;;;;;;5.56;69.44;104274.19;4962897;28;20532;-51
2022/03/18 06:19:45;;;;;;;13.52;6.53;;;;;;;5.65;68.95;104267.25;4953759;28;20157;-54
2022/03/18 06:22:11;;;;;;;16.98;6.45;;;;;;;5.71;68.89;104276.47;4966114;28;20094;-52
2022/03/18 06:24:37;;;;;;;15.45;6.78;;;;;;;5.82;68.83;104279.97;4954985;28;20504;-53
2022/03/18 06:27:03;;;;;;;12.13;6.45;;;;;;;5.96;68.79;104283.81;4964547;28;20638;-55
2022/03/18 06:29:29;;;;;;;13.10;6.93;;;;;;;6.07;68.71;104288.22;4961901;28;20264;-50
2022/03/18 06:31:57;;;;;;;12.88;6.50;;;;;;;6.46;68.34;104299.38;4949037;28;20057;-53
2022/03/18 06:34:23;;;;;;;14.93;6.75;;;;;;;6.79;66.64;104302.97;4951889;28;20441;-51
2022/03/18 06:36:53;;;;;;;16.20;6.38;;;;;;;7.47;65.07;104303.44;4954922;28;20418;-53
2022/03/18 06:39:20;;;;;;;16.85;6.63;;;;;;;8.27;63.69;104295.03;4960924;28;20042;-54
2022/03/18 06:41:46;;;;;;;14.23;5.95;;;;;;;9.04;60.71;104300.06;4955929;28;20050;-54
2022/03/18 06:44:12;;;;;;;16.17;6.00;;;;;;;9.36;57.79;104306.84;4961536;28;20049;-52
2022/03/18 06:46:38;;;;;;;13.35;6.20;;;;;;;10.02;55.65;104299.41;4951026;28;20759;-54
2022/03/18 06:49:04;;;;;;;12.70;6.10;;;;;;;10.52;54.27;104302.03;4962166;28;20174;-54
2022/03/18 06:51:30;;;;;;;14.00;6.18;;;;;;;10.77;54.37;104302.00;4959791;28;20042;-53
2022/03/18 06:53:56;;;;;;;18.10;6.35;;;;;;;11.25;54.35;104306.94;4945509;28;20057;-55
2022/03/18 06:56:22;;;;;;;25.10;6.95;;;;;;;11.49;51.59;104313.75;4948378;28;20054;-54
2022/03/18 06:58:47;;;;;;;19.02;6.75;;;;;;;11.78;51.34;104307.78;4958126;28;20042;-52
2022/03/18 07:01:13;;;;;;;13.70;6.07;;;;;;;12.27;51.83;104306.50;4962025;28;20042;-54
2022/03/18 07:03:38;;;;;;;16.05;6.35;;;;;;;12.49;49.05;104303.47;4956065;28;20559;-51
2022/03/18 07:06:06;;;;;;;13.60;6.60;;;;;;;12.83;51.03;104315.13;4960091;28;20137;-52
2022/03/18 07:08:32;;;;;;;18.30;7.05;;;;;;;13.20;49.99;104317.28;4953394;28;20205;-55
2022/03/18 07:10:58;;;;;;;11.35;6.28;;;;;;;13.46;49.24;104316.16;4958811;28;20069;-55
2022/03/18 07:13:23;;;;;;;14.05;6.40;;;;;;;13.84;48.92;104313.03;4945896;28;20474;-54
2022/03/18 07:15:49;;;;;;;21.05;7.00;;;;;;;13.99;47.34;104312.13;4959438;28;20046;-54
2022/03/18 07:18:14;;;;;;;21.70;7.35;;;;;;;14.32;45.03;104317.38;4961178;28;20042;-55
2022/03/18 07:20:40;;;;;;;16.42;6.97;;;;;;;14.42;47.04;104319.69;4953517;28;20046;-55
2022/03/18 07:23:10;;;;;;;15.38;6.75;;;;;;;14.70;46.90;104317.66;4955846;28;20060;-56
2022/03/18 07:25:38;;;;;;;18.55;7.40;;;;;;;14.92;44.77;104324.91;4961947;28;20398;-59
2022/03/18 07:28:05;;;;;;;19.65;7.75;;;;;;;15.26;44.67;104324.84;4969627;28;20057;-58
2022/03/18 07:30:31;;;;;;;16.00;6.90;;;;;;;14.91;43.04;104317.84;4945783;28;20056;-56
2022/03/18 07:32:57;;;;;;;16.00;6.95;;;;;;;15.03;43.33;104316.72;4951574;28;20050;-58
2022/03/18 07:35:22;;;;;;;17.20;7.30;;;;;;;14.94;44.36;104320.66;4965976;28;20679;-59
2022/03/18 07:37:48;;;;;;;17.08;7.00;;;;;;;14.69;43.15;104328.09;4954929;28;20113;-58
2022/03/18 07:40:17;;;;;;;17.50;7.07;;;;;;;14.19;43.70;104328.94;4948529;28;20057;-60
2022/03/18 07:42:45;;;;;;;17.73;7.30;;;;;;;13.85;45.58;104343.66;4939599;28;20496;-58
2022/03/18 07:45:12;;;;;;;176.77;126.70;;;;;;;13.38;47.10;104353.31;4951597;28;20042;-57
2022/03/18 07:47:38;;;;;;;20.85;8.32;;;;;;;13.11;46.59;104361.28;4958975;28;20077;-60
2022/03/18 07:50:05;;;;;;;15.85;8.40;;;;;;;13.09;46.27;104361.19;4959024;28;20466;-59
2022/03/18 07:52:30;;;;;;;30.67;8.23;;;;;;;12.84;47.17;104365.78;4945723;28;20094;-60
2022/03/18 07:54:56;;;;;;;18.10;7.90;;;;;;;12.86;47.40;104369.41;4953018;28;20191;-60
2022/03/18 07:57:21;;;;;;;17.17;7.25;;;;;;;12.89;47.44;104367.84;4951385;28;21145;-57
2022/03/18 07:59:47;;;;;;;15.48;6.72;;;;;;;12.86;47.51;104375.53;4958902;28;20112;-59
2022/03/18 08:02:12;;;;;;;22.40;7.10;;;;;;;12.85;47.64;104378.06;4956872;28;20418;-58
2022/03/18 08:04:37;;;;;;;15.05;6.60;;;;;;;12.89;47.44;104388.81;4947421;28;20283;-62
2022/03/18 08:07:03;;;;;;;20.13;6.30;;;;;;;12.81;48.42;104389.16;4957230;28;20061;-60
2022/03/18 08:09:29;;;;;;;12.43;6.28;;;;;;;12.93;48.30;104398.63;4960722;28;20152;-57
2022/03/18 08:11:55;;;;;;;20.13;6.60;;;;;;;13.06;49.31;104399.38;4954629;28;20046;-59
2022/03/18 08:14:21;;;;;;;16.17;6.25;;;;;;;13.16;49.15;104405.31;4955814;28;20069;-59
2022/03/18 08:16:46;;;;;;;13.18;5.25;;;;;;;13.21;49.57;104413.41;4945436;28;20458;-56
2022/03/18 08:19:12;;;;;;;17.17;5.80;;;;;;;13.25;49.97;104410.16;4965924;28;20045;-57
2022/03/18 08:21:37;;;;;;;19.70;6.85;;;;;;;13.34;50.31;104416.84;4953210;28;20054;-58
2022/03/18 08:24:20;;;;;;;12.45;5.43;;;;;;;13.40;50.11;104413.69;4957066;28;20046;-57
2022/03/18 08:26:46;;;;;;;14.68;5.03;;;;;;;13.57;49.99;104412.94;4946565;28;20053;-58
2022/03/18 08:29:11;;;;;;;17.00;5.45;;;;;;;13.68;50.10;104410.91;4951602;28;20042;-57
2022/03/18 08:31:36;;;;;;;13.27;5.43;;;;;;;13.76;50.23;104412.25;4941442;28;20551;-57
2022/03/18 08:34:02;;;;;;;17.67;5.18;;;;;;;13.84;50.09;104415.31;4956577;28;20043;-59
2022/03/18 08:36:27;;;;;;;13.25;5.40;;;;;;;13.92;50.93;104414.91;4957973;28;20038;-57
2022/03/18 08:38:52;;;;;;;14.73;5.47;;;;;;;13.96;50.88;104419.53;4962577;28;20057;-57
2022/03/18 08:41:18;;;;;;;16.45;5.57;;;;;;;13.91;50.13;104422.69;4959358;28;20054;-57
2022/03/18 08:43:43;;;;;;;16.75;5.50;;;;;;;13.96;50.86;104421.25;4958756;28;20512;-57
2022/03/18 08:46:09;;;;;;;16.70;5.88;;;;;;;13.89;50.89;104422.63;4962546;28;20108;-56
2022/03/18 08:48:34;;;;;;;14.25;5.20;;;;;;;14.09;51.33;104426.34;4957747;28;20398;-56
2022/03/18 08:50:59;;;;;;;13.50;5.75;;;;;;;14.12;52.93;104429.16;4963269;28;20112;-57
2022/03/18 08:53:25;;;;;;;13.15;5.38;;;;;;;14.19;50.64;104437.44;4963674;28;20158;-57
2022/03/18 08:55:50;;;;;;;14.25;5.40;;;;;;;14.16;50.80;104439.88;4951287;28;20817;-56
2022/03/18 08:58:16;;;;;;;14.13;5.50;;;;;;;13.74;51.59;104434.84;4954754;28;20042;-56
2022/03/18 09:00:42;;;;;;;16.90;5.80;;;;;;;14.21;51.59;104443.66;4955555;28;20201;-56
2022/03/18 09:03:07;;;;;;;14.57;5.53;;;;;;;14.45;51.20;104438.91;4956410;28;20518;-56
2022/03/18 09:05:33;;;;;;;13.25;5.30;;;;;;;14.61;50.59;104452.03;4954427;28;20099;-56
2022/03/18 09:07:59;;;;;;;14.80;5.65;;;;;;;14.70;49.77;104448.97;4968075;28;20133;-58
2022/03/18 09:10:24;;;;;;;16.98;5.53;;;;;;;14.79;50.37;104449.47;4951095;28;20043;-54
2022/03/18 09:12:55;;;;;;;17.05;5.53;;;;;;;14.91;48.97;104446.59;4950169;28;20501;-56
2022/03/18 09:15:21;;;;;;;18.15;6.25;;;;;;;14.80;49.87;104453.00;4962810;28;20133;-57
2022/03/18 09:17:46;;;;;;;13.45;5.65;;;;;;;14.54;49.87;104456.88;4955120;28;20042;-56
2022/03/18 09:20:12;;;;;;;13.15;6.15;;;;;;;14.55;50.44;104464.81;4950387;28;20487;-58
2022/03/18 09:22:37;;;;;;;13.77;6.40;;;;;;;14.59;50.44;104465.88;4955087;28;20126;-56
2022/03/18 09:25:03;;;;;;;17.75;5.95;;;;;;;14.76;50.39;104469.44;4958293;28;20476;-55
2022/03/18 09:27:28;;;;;;;13.25;6.40;;;;;;;14.32;50.45;104477.50;4953076;28;20454;-56
2022/03/18 09:29:54;;;;;;;15.80;6.28;;;;;;;14.70;50.13;104472.59;4958962;28;20039;-56
2022/03/18 09:32:19;;;;;;;15.38;6.30;;;;;;;14.30;50.93;104485.28;4964161;28;20045;-55
2022/03/18 09:34:44;;;;;;;14.80;6.78;;;;;;;14.56;50.83;104484.13;4959179;28;20049;-56
2022/03/18 09:37:10;;;;;;;17.83;6.95;;;;;;;14.61;50.48;104488.78;4960219;28;20077;-57
2022/03/18 09:39:35;;;;;;;16.05;6.60;;;;;;;14.53;50.69;104495.34;4953101;28;20506;-56
2022/03/18 09:42:00;;;;;;;17.25;6.78;;;;;;;14.61;50.86;104498.41;4959925;28;20050;-57
2022/03/18 09:44:36;;;;;;;15.23;6.45;;;;;;;14.24;51.74;104505.94;4946723;28;20480;-58
2022/03/18 09:47:03;;;;;;;15.40;6.53;;;;;;;14.43;51.52;104510.50;4948117;28;20053;-56
2022/03/18 09:49:29;;;;;;;16.10;7.15;;;;;;;14.50;50.95;104510.94;4952959;28;20368;-55
2022/03/18 09:51:54;;;;;;;16.40;7.07;;;;;;;14.65;51.41;104508.22;4959903;28;20112;-55
2022/03/18 09:54:20;;;;;;;14.80;7.10;;;;;;;14.78;51.51;104509.81;4949005;28;20256;-58
2022/03/18 09:56:47;;;;;;;21.48;7.15;;;;;;;14.76;51.94;104506.22;4956612;28;20595;-53
2022/03/18 09:59:14;;;;;;;16.65;7.05;;;;;;;14.71;52.23;104503.31;4952470;28;20046;-57
2022/03/18 10:01:39;;;;;;;16.98;6.80;;;;;;;14.38;52.80;104518.16;4951722;28;20677;-56
2022/03/18 10:04:13;;;;;;;16.20;7.00;;;;;;;14.74;52.87;104514.00;4938578;28;20065;-56
2022/03/18 10:06:42;;;;;;;14.10;7.07;;;;;;;14.83;53.39;104513.56;4948555;28;20034;-56
2022/03/18 10:09:08;;;;;;;16.40;7.07;;;;;;;15.06;51.47;104515.72;4956301;28;20073;-56
2022/03/18 10:11:36;;;;;;;16.27;6.60;;;;;;;14.82;52.36;104507.41;4959696;28;20546;-56
2022/03/18 10:14:13;;;;;;;15.27;6.75;;;;;;;15.00;51.23;104505.75;4950071;28;20067;-56
2022/03/18 10:16:40;;;;;;;21.52;7.25;;;;;;;15.20;50.33;104511.16;4952442;28;20145;-59
2022/03/18 10:19:08;;;;;;;19.85;7.03;;;;;;;15.23;51.22;104506.09;4960079;28;20042;-57
2022/03/18 10:22:01;;;;;;;16.33;7.43;;;;;;;15.15;52.15;104502.13;4953276;28;20101;-55
2022/03/18 10:24:32;;;;;;;17.63;7.32;;;;;;;15.15;51.05;104510.94;4951970;28;20038;-57
2022/03/18 10:27:12;;;;;;;17.00;7.38;;;;;;;15.46;50.62;104513.41;4960463;28;20037;-57
2022/03/18 10:29:53;;;;;;;21.75;7.22;;;;;;;15.27;50.65;104513.28;4959259;28;20528;-56
2022/03/18 10:32:20;;;;;;;17.63;7.40;;;;;;;15.35;50.39;104514.59;4958469;28;20058;-56
2022/03/18 10:37:41;;;;;;;16.38;7.10;;;;;;;15.42;49.77;104515.00;4960818;28;20053;-56
2022/03/18 10:40:06;;;;;;;15.07;6.50;;;;;;;15.63;49.39;104519.56;4957267;28;20046;-55
2022/03/18 10:42:32;;;;;;;15.93;6.63;;;;;;;15.70;49.91;104519.94;4950795;28;20049;-56
2022/03/18 10:44:59;;;;;;;13.85;6.60;;;;;;;15.84;48.92;104515.38;4953137;28;20030;-56
2022/03/18 10:47:27;;;;;;;18.92;7.18;;;;;;;16.01;48.66;104516.19;4959020;28;20952;-56
2022/03/18 10:50:13;;;;;;;13.55;6.72;;;;;;;16.00;48.76;104517.03;4960072;28;20165;-56
2022/03/18 10:52:45;;;;;;;13.55;6.70;;;;;;;15.74;48.26;104521.91;4952359;28;20958;-55
2022/03/18 10:55:24;;;;;;;13.40;6.75;;;;;;;15.61;48.40;104523.84;4965409;28;20038;-57
2022/03/18 10:57:52;;;;;;;14.50;6.15;;;;;;;15.70;47.72;104524.31;4959570;28;20380;-56
2022/03/18 11:00:20;;;;;;;19.58;6.45;;;;;;;15.72;48.52;104520.94;4958752;28;20031;-56
2022/03/18 11:02:48;;;;;;;14.68;6.00;;;;;;;15.49;47.27;104529.34;4955878;28;20501;-56
2022/03/18 11:05:14;;;;;;;11.45;5.90;;;;;;;15.75;47.22;104531.59;4952449;28;20042;-56
2022/03/18 11:07:43;;;;;;;12.07;6.03;;;;;;;15.80;48.36;104529.19;4944676;28;20085;-57
2022/03/18 11:12:56;;;;;;;13.70;6.85;;;;;;;15.95;47.77;104535.22;4959658;28;20069;-56
2022/03/18 11:15:24;;;;;;;15.82;7.30;;;;;;;15.83;47.21;104529.34;4961295;28;20512;-56
2022/03/18 11:17:50;;;;;;;13.80;7.10;;;;;;;16.10;48.12;104527.19;4955039;28;21025;-55
2022/03/18 11:20:20;;;;;;;13.82;6.95;;;;;;;16.44;46.75;104530.59;4955916;28;20045;-56
2022/03/18 11:22:50;;;;;;;12.23;6.78;;;;;;;16.39;45.77;104529.47;4938408;28;20042;-57
2022/03/18 11:25:17;;;;;;;14.00;7.07;;;;;;;16.45;45.54;104531.50;4956134;28;20042;-57
2022/03/18 11:27:51;;;;;;;15.50;6.90;;;;;;;16.08;46.72;104536.72;4959567;28;20112;-58
2022/03/18 11:30:34;;;;;;;19.95;7.32;;;;;;;15.76;47.06;104538.66;4959377;28;20119;-57
2022/03/18 11:33:09;;;;;;;14.07;7.00;;;;;;;16.28;46.54;104537.72;4958241;28;20125;-57
2022/03/18 11:35:50;;;;;;;13.68;6.95;;;;;;;16.26;45.95;104547.25;4961769;28;20425;-56
2022/03/18 11:38:28;;;;;;;15.93;7.40;;;;;;;16.24;46.09;104539.28;4951014;28;20042;-56